sensor_id;sensor_type;location;lat;lon;timestamp;P1;durP1;ratioP1;P2;durP2;ratioP2
2458;SDS011;1241;50.920;6.936;2022-11-14T00:01:46;9.55;;;8.60;;
2458;SDS011;1241;50.920;6.936;2022-11-14T00:04:30;11.93;;;9.15;;
2458;SDS011;1241;50.920;6.936;2022-11-14T00:07:14;10.15;;;7.63;;
2458;SDS011;1241;50.920;6.936;2022-11-14T00:09:58;11.15;;;9.27;;
2458;SDS011;1241;50.920;6.936;2022-11-14T00:12:42;10.55;;;9.02;;
2458;SDS011;1241;50.920;6.936;2022-11-14T00:15:26;13.57;;;10.07;;
2458;SDS011;1241;50.920;6.936;2022-11-14T00:18:10;14.13;;;11.48;;
2458;SDS011;1241;50.920;6.936;2022-11-14T00:20:54;13.55;;;10.73;;
2458;SDS011;1241;50.920;6.936;2022-11-14T00:23:38;12.32;;;10.50;;
2458;SDS011;1241;50.920;6.936;2022-11-14T00:26:22;12.23;;;11.02;;
2458;SDS011;1241;50.920;6.936;2022-11-14T00:29:06;13.30;;;9.63;;
2458;SDS011;1241;50.920;6.936;2022-11-14T00:31:50;12.43;;;10.73;;
2458;SDS011;1241;50.920;6.936;2022-11-14T00:34:35;10.98;;;9.88;;
2458;SDS011;1241;50.920;6.936;2022-11-14T00:37:19;11.35;;;9.73;;
2458;SDS011;1241;50.920;6.936;2022-11-14T00:40:03;10.48;;;9.45;;
2458;SDS011;1241;50.920;6.936;2022-11-14T00:42:48;13.50;;;9.90;;
2458;SDS011;1241;50.920;6.936;2022-11-14T00:45:32;11.30;;;9.70;;
2458;SDS011;1241;50.920;6.936;2022-11-14T00:48:16;12.45;;;9.88;;
2458;SDS011;1241;50.920;6.936;2022-11-14T00:51:00;17.20;;;11.40;;
2458;SDS011;1241;50.920;6.936;2022-11-14T00:53:44;12.15;;;10.82;;
2458;SDS011;1241;50.920;6.936;2022-11-14T00:56:28;11.90;;;8.82;;
2458;SDS011;1241;50.920;6.936;2022-11-14T00:59:13;10.90;;;9.88;;
2458;SDS011;1241;50.920;6.936;2022-11-14T01:01:57;15.18;;;10.52;;
2458;SDS011;1241;50.920;6.936;2022-11-14T01:04:41;9.90;;;8.45;;
2458;SDS011;1241;50.920;6.936;2022-11-14T01:07:25;14.75;;;12.25;;
2458;SDS011;1241;50.920;6.936;2022-11-14T01:10:09;9.77;;;7.95;;
2458;SDS011;1241;50.920;6.936;2022-11-14T01:12:53;11.55;;;10.43;;
2458;SDS011;1241;50.920;6.936;2022-11-14T01:15:38;12.13;;;10.10;;
2458;SDS011;1241;50.920;6.936;2022-11-14T01:18:24;10.57;;;9.40;;
2458;SDS011;1241;50.920;6.936;2022-11-14T01:21:09;10.05;;;8.98;;
2458;SDS011;1241;50.920;6.936;2022-11-14T01:23:55;11.63;;;9.43;;
2458;SDS011;1241;50.920;6.936;2022-11-14T01:26:39;10.90;;;9.23;;
2458;SDS011;1241;50.920;6.936;2022-11-14T01:29:23;13.73;;;9.00;;
2458;SDS011;1241;50.920;6.936;2022-11-14T01:32:08;13.35;;;9.45;;
2458;SDS011;1241;50.920;6.936;2022-11-14T01:34:52;11.90;;;9.70;;
2458;SDS011;1241;50.920;6.936;2022-11-14T01:37:36;11.45;;;7.97;;
2458;SDS011;1241;50.920;6.936;2022-11-14T01:40:20;12.23;;;9.50;;
2458;SDS011;1241;50.920;6.936;2022-11-14T01:43:10;11.57;;;10.48;;
2458;SDS011;1241;50.920;6.936;2022-11-14T01:46:15;12.10;;;9.40;;
2458;SDS011;1241;50.920;6.936;2022-11-14T01:49:09;10.77;;;8.98;;
2458;SDS011;1241;50.920;6.936;2022-11-14T01:54:58;13.73;;;10.07;;
2458;SDS011;1241;50.920;6.936;2022-11-14T01:57:45;14.35;;;10.00;;
2458;SDS011;1241;50.920;6.936;2022-11-14T02:00:31;15.85;;;9.07;;
2458;SDS011;1241;50.920;6.936;2022-11-14T02:03:16;11.63;;;10.07;;
2458;SDS011;1241;50.920;6.936;2022-11-14T02:06:02;9.65;;;8.60;;
2458;SDS011;1241;50.920;6.936;2022-11-14T02:08:47;9.95;;;7.53;;
2458;SDS011;1241;50.920;6.936;2022-11-14T02:11:34;9.60;;;8.40;;
2458;SDS011;1241;50.920;6.936;2022-11-14T02:14:25;11.27;;;8.57;;
2458;SDS011;1241;50.920;6.936;2022-11-14T02:17:11;8.77;;;8.02;;
2458;SDS011;1241;50.920;6.936;2022-11-14T02:20:04;10.55;;;9.45;;
2458;SDS011;1241;50.920;6.936;2022-11-14T02:22:54;8.48;;;6.78;;
2458;SDS011;1241;50.920;6.936;2022-11-14T02:25:38;8.15;;;7.35;;
2458;SDS011;1241;50.920;6.936;2022-11-14T02:28:24;8.90;;;7.47;;
2458;SDS011;1241;50.920;6.936;2022-11-14T02:31:09;10.15;;;7.97;;
2458;SDS011;1241;50.920;6.936;2022-11-14T02:33:53;8.43;;;7.25;;
2458;SDS011;1241;50.920;6.936;2022-11-14T02:36:37;8.32;;;7.53;;
2458;SDS011;1241;50.920;6.936;2022-11-14T02:39:21;9.98;;;8.65;;
2458;SDS011;1241;50.920;6.936;2022-11-14T02:42:06;8.48;;;7.68;;
2458;SDS011;1241;50.920;6.936;2022-11-14T02:44:50;10.95;;;9.82;;
2458;SDS011;1241;50.920;6.936;2022-11-14T02:47:34;9.90;;;8.00;;
2458;SDS011;1241;50.920;6.936;2022-11-14T02:50:18;8.95;;;7.70;;
2458;SDS011;1241;50.920;6.936;2022-11-14T02:53:02;10.93;;;8.75;;
2458;SDS011;1241;50.920;6.936;2022-11-14T02:55:46;8.77;;;7.30;;
2458;SDS011;1241;50.920;6.936;2022-11-14T02:58:30;9.57;;;7.95;;
2458;SDS011;1241;50.920;6.936;2022-11-14T03:01:14;10.88;;;8.38;;
2458;SDS011;1241;50.920;6.936;2022-11-14T03:03:58;12.35;;;9.32;;
2458;SDS011;1241;50.920;6.936;2022-11-14T03:06:42;9.63;;;8.50;;
2458;SDS011;1241;50.920;6.936;2022-11-14T03:09:26;8.82;;;7.95;;
2458;SDS011;1241;50.920;6.936;2022-11-14T03:12:10;8.23;;;7.47;;
2458;SDS011;1241;50.920;6.936;2022-11-14T03:14:59;12.25;;;8.30;;
2458;SDS011;1241;50.920;6.936;2022-11-14T03:17:43;11.32;;;8.90;;
2458;SDS011;1241;50.920;6.936;2022-11-14T03:20:27;7.63;;;6.68;;
2458;SDS011;1241;50.920;6.936;2022-11-14T03:23:11;9.23;;;8.40;;
2458;SDS011;1241;50.920;6.936;2022-11-14T03:25:58;10.55;;;8.40;;
2458;SDS011;1241;50.920;6.936;2022-11-14T03:28:43;10.27;;;9.27;;
2458;SDS011;1241;50.920;6.936;2022-11-14T03:31:27;9.07;;;7.75;;
2458;SDS011;1241;50.920;6.936;2022-11-14T03:34:11;13.75;;;10.10;;
2458;SDS011;1241;50.920;6.936;2022-11-14T03:36:55;8.85;;;7.80;;
2458;SDS011;1241;50.920;6.936;2022-11-14T03:39:39;11.07;;;8.77;;
2458;SDS011;1241;50.920;6.936;2022-11-14T03:42:23;9.95;;;8.63;;
2458;SDS011;1241;50.920;6.936;2022-11-14T03:45:08;10.40;;;8.25;;
2458;SDS011;1241;50.920;6.936;2022-11-14T03:47:53;9.35;;;7.85;;
2458;SDS011;1241;50.920;6.936;2022-11-14T03:50:37;8.90;;;8.10;;
2458;SDS011;1241;50.920;6.936;2022-11-14T03:53:22;9.43;;;8.20;;
2458;SDS011;1241;50.920;6.936;2022-11-14T03:56:07;11.43;;;9.45;;
2458;SDS011;1241;50.920;6.936;2022-11-14T03:58:51;8.30;;;7.60;;
2458;SDS011;1241;50.920;6.936;2022-11-14T04:01:35;10.25;;;8.68;;
2458;SDS011;1241;50.920;6.936;2022-11-14T04:04:19;8.50;;;7.65;;
2458;SDS011;1241;50.920;6.936;2022-11-14T04:07:03;9.70;;;8.43;;
2458;SDS011;1241;50.920;6.936;2022-11-14T04:09:48;10.10;;;8.55;;
2458;SDS011;1241;50.920;6.936;2022-11-14T04:12:34;8.52;;;7.15;;
2458;SDS011;1241;50.920;6.936;2022-11-14T04:15:18;9.55;;;8.65;;
2458;SDS011;1241;50.920;6.936;2022-11-14T04:18:03;9.35;;;8.43;;
2458;SDS011;1241;50.920;6.936;2022-11-14T04:20:47;13.35;;;9.88;;
2458;SDS011;1241;50.920;6.936;2022-11-14T04:23:31;8.48;;;7.70;;
2458;SDS011;1241;50.920;6.936;2022-11-14T04:26:15;10.73;;;9.00;;
2458;SDS011;1241;50.920;6.936;2022-11-14T04:29:00;10.75;;;8.98;;
2458;SDS011;1241;50.920;6.936;2022-11-14T04:31:44;10.20;;;9.20;;
2458;SDS011;1241;50.920;6.936;2022-11-14T04:34:28;11.90;;;10.50;;
2458;SDS011;1241;50.920;6.936;2022-11-14T04:37:12;14.93;;;11.82;;
2458;SDS011;1241;50.920;6.936;2022-11-14T04:39:56;12.82;;;10.35;;
2458;SDS011;1241;50.920;6.936;2022-11-14T04:42:43;12.05;;;8.70;;
2458;SDS011;1241;50.920;6.936;2022-11-14T04:45:27;12.77;;;9.20;;
2458;SDS011;1241;50.920;6.936;2022-11-14T04:48:12;10.05;;;8.70;;
2458;SDS011;1241;50.920;6.936;2022-11-14T04:50:56;16.65;;;12.90;;
2458;SDS011;1241;50.920;6.936;2022-11-14T04:53:40;13.00;;;10.75;;
2458;SDS011;1241;50.920;6.936;2022-11-14T04:56:24;15.57;;;11.93;;
2458;SDS011;1241;50.920;6.936;2022-11-14T04:59:08;20.60;;;12.65;;
2458;SDS011;1241;50.920;6.936;2022-11-14T05:01:53;16.08;;;12.02;;
2458;SDS011;1241;50.920;6.936;2022-11-14T05:04:37;12.60;;;8.52;;
2458;SDS011;1241;50.920;6.936;2022-11-14T05:07:21;10.68;;;9.55;;
2458;SDS011;1241;50.920;6.936;2022-11-14T05:10:05;10.20;;;8.57;;
2458;SDS011;1241;50.920;6.936;2022-11-14T05:12:53;8.60;;;7.70;;
2458;SDS011;1241;50.920;6.936;2022-11-14T05:15:37;8.63;;;7.53;;
2458;SDS011;1241;50.920;6.936;2022-11-14T05:18:22;8.80;;;8.00;;
2458;SDS011;1241;50.920;6.936;2022-11-14T05:21:06;12.02;;;9.43;;
2458;SDS011;1241;50.920;6.936;2022-11-14T05:23:50;9.43;;;7.80;;
2458;SDS011;1241;50.920;6.936;2022-11-14T05:26:34;13.00;;;8.75;;
2458;SDS011;1241;50.920;6.936;2022-11-14T05:29:18;10.82;;;9.02;;
2458;SDS011;1241;50.920;6.936;2022-11-14T05:32:02;13.52;;;9.40;;
2458;SDS011;1241;50.920;6.936;2022-11-14T05:34:46;10.40;;;8.98;;
2458;SDS011;1241;50.920;6.936;2022-11-14T05:37:31;11.20;;;8.80;;
2458;SDS011;1241;50.920;6.936;2022-11-14T05:40:17;13.65;;;11.00;;
2458;SDS011;1241;50.920;6.936;2022-11-14T05:43:02;10.63;;;8.43;;
2458;SDS011;1241;50.920;6.936;2022-11-14T05:45:46;12.82;;;10.35;;
2458;SDS011;1241;50.920;6.936;2022-11-14T05:48:30;11.35;;;10.23;;
2458;SDS011;1241;50.920;6.936;2022-11-14T05:51:15;17.60;;;12.98;;
2458;SDS011;1241;50.920;6.936;2022-11-14T05:53:59;14.73;;;12.18;;
2458;SDS011;1241;50.920;6.936;2022-11-14T05:56:43;11.35;;;10.10;;
2458;SDS011;1241;50.920;6.936;2022-11-14T05:59:27;12.15;;;10.90;;
2458;SDS011;1241;50.920;6.936;2022-11-14T06:02:11;14.88;;;12.27;;
2458;SDS011;1241;50.920;6.936;2022-11-14T06:04:56;11.43;;;10.07;;
2458;SDS011;1241;50.920;6.936;2022-11-14T06:07:40;12.73;;;10.13;;
2458;SDS011;1241;50.920;6.936;2022-11-14T06:10:24;13.82;;;10.23;;
2458;SDS011;1241;50.920;6.936;2022-11-14T06:13:09;16.13;;;11.30;;
2458;SDS011;1241;50.920;6.936;2022-11-14T06:15:57;26.15;;;16.65;;
2458;SDS011;1241;50.920;6.936;2022-11-14T06:18:42;16.30;;;11.00;;
2458;SDS011;1241;50.920;6.936;2022-11-14T06:21:27;15.25;;;11.98;;
2458;SDS011;1241;50.920;6.936;2022-11-14T06:24:11;13.68;;;10.93;;
2458;SDS011;1241;50.920;6.936;2022-11-14T06:26:55;18.58;;;13.85;;
2458;SDS011;1241;50.920;6.936;2022-11-14T06:29:39;14.48;;;12.07;;
2458;SDS011;1241;50.920;6.936;2022-11-14T06:32:23;16.33;;;11.75;;
2458;SDS011;1241;50.920;6.936;2022-11-14T06:35:08;20.13;;;15.82;;
2458;SDS011;1241;50.920;6.936;2022-11-14T06:37:52;14.85;;;12.85;;
2458;SDS011;1241;50.920;6.936;2022-11-14T06:40:37;21.00;;;15.68;;
2458;SDS011;1241;50.920;6.936;2022-11-14T06:43:21;16.40;;;13.13;;
2458;SDS011;1241;50.920;6.936;2022-11-14T06:46:06;17.05;;;12.30;;
2458;SDS011;1241;50.920;6.936;2022-11-14T06:48:51;20.02;;;14.60;;
2458;SDS011;1241;50.920;6.936;2022-11-14T06:51:35;17.60;;;14.50;;
2458;SDS011;1241;50.920;6.936;2022-11-14T06:54:20;16.50;;;12.40;;
2458;SDS011;1241;50.920;6.936;2022-11-14T06:57:04;14.55;;;12.27;;
2458;SDS011;1241;50.920;6.936;2022-11-14T06:59:48;15.82;;;13.45;;
2458;SDS011;1241;50.920;6.936;2022-11-14T07:02:32;13.50;;;11.10;;
2458;SDS011;1241;50.920;6.936;2022-11-14T07:05:16;17.70;;;13.25;;
2458;SDS011;1241;50.920;6.936;2022-11-14T07:08:00;19.75;;;13.70;;
2458;SDS011;1241;50.920;6.936;2022-11-14T07:10:44;16.13;;;13.25;;
2458;SDS011;1241;50.920;6.936;2022-11-14T07:13:28;15.88;;;11.05;;
2458;SDS011;1241;50.920;6.936;2022-11-14T07:16:13;17.45;;;15.27;;
2458;SDS011;1241;50.920;6.936;2022-11-14T07:18:58;17.42;;;13.00;;
2458;SDS011;1241;50.920;6.936;2022-11-14T07:21:42;16.52;;;14.43;;
2458;SDS011;1241;50.920;6.936;2022-11-14T07:24:26;16.55;;;14.50;;
2458;SDS011;1241;50.920;6.936;2022-11-14T07:27:10;14.25;;;12.70;;
2458;SDS011;1241;50.920;6.936;2022-11-14T07:29:54;20.15;;;15.30;;
2458;SDS011;1241;50.920;6.936;2022-11-14T07:32:38;22.27;;;17.20;;
2458;SDS011;1241;50.920;6.936;2022-11-14T07:35:23;33.00;;;27.50;;
2458;SDS011;1241;50.920;6.936;2022-11-14T07:38:07;30.38;;;22.77;;
2458;SDS011;1241;50.920;6.936;2022-11-14T07:43:39;22.73;;;17.48;;
2458;SDS011;1241;50.920;6.936;2022-11-14T07:46:24;26.70;;;18.52;;
2458;SDS011;1241;50.920;6.936;2022-11-14T07:49:08;15.90;;;14.20;;
2458;SDS011;1241;50.920;6.936;2022-11-14T07:51:52;21.40;;;13.95;;
2458;SDS011;1241;50.920;6.936;2022-11-14T07:54:36;17.08;;;14.18;;
2458;SDS011;1241;50.920;6.936;2022-11-14T07:57:21;18.42;;;13.50;;
2458;SDS011;1241;50.920;6.936;2022-11-14T08:00:05;19.13;;;15.13;;
2458;SDS011;1241;50.920;6.936;2022-11-14T08:02:53;21.20;;;15.52;;
2458;SDS011;1241;50.920;6.936;2022-11-14T08:05:38;17.52;;;13.55;;
2458;SDS011;1241;50.920;6.936;2022-11-14T08:08:22;18.88;;;14.20;;
2458;SDS011;1241;50.920;6.936;2022-11-14T08:11:06;19.23;;;14.05;;
2458;SDS011;1241;50.920;6.936;2022-11-14T08:13:50;17.27;;;14.07;;
2458;SDS011;1241;50.920;6.936;2022-11-14T08:16:34;17.42;;;13.20;;
2458;SDS011;1241;50.920;6.936;2022-11-14T08:19:18;17.50;;;15.52;;
2458;SDS011;1241;50.920;6.936;2022-11-14T08:22:02;18.75;;;13.50;;
2458;SDS011;1241;50.920;6.936;2022-11-14T08:24:47;17.38;;;15.07;;
2458;SDS011;1241;50.920;6.936;2022-11-14T08:27:31;17.13;;;13.80;;
2458;SDS011;1241;50.920;6.936;2022-11-14T08:30:15;17.20;;;13.80;;
2458;SDS011;1241;50.920;6.936;2022-11-14T08:33:00;17.20;;;14.77;;
2458;SDS011;1241;50.920;6.936;2022-11-14T08:35:45;22.60;;;15.38;;
2458;SDS011;1241;50.920;6.936;2022-11-14T08:38:30;20.95;;;16.60;;
2458;SDS011;1241;50.920;6.936;2022-11-14T08:41:14;20.10;;;14.00;;
2458;SDS011;1241;50.920;6.936;2022-11-14T08:43:58;25.23;;;17.65;;
2458;SDS011;1241;50.920;6.936;2022-11-14T08:46:43;25.40;;;18.23;;
2458;SDS011;1241;50.920;6.936;2022-11-14T08:49:27;28.08;;;17.80;;
2458;SDS011;1241;50.920;6.936;2022-11-14T08:52:10;22.15;;;16.15;;
2458;SDS011;1241;50.920;6.936;2022-11-14T08:54:54;22.45;;;16.90;;
2458;SDS011;1241;50.920;6.936;2022-11-14T08:57:39;23.85;;;18.27;;
2458;SDS011;1241;50.920;6.936;2022-11-14T09:00:23;30.00;;;20.88;;
2458;SDS011;1241;50.920;6.936;2022-11-14T09:03:07;25.73;;;18.05;;
2458;SDS011;1241;50.920;6.936;2022-11-14T09:05:52;26.42;;;20.35;;
2458;SDS011;1241;50.920;6.936;2022-11-14T09:08:36;23.23;;;17.40;;
2458;SDS011;1241;50.920;6.936;2022-11-14T09:11:20;25.67;;;19.00;;
2458;SDS011;1241;50.920;6.936;2022-11-14T09:14:05;23.33;;;16.55;;
2458;SDS011;1241;50.920;6.936;2022-11-14T09:16:49;29.92;;;19.40;;
2458;SDS011;1241;50.920;6.936;2022-11-14T09:19:33;22.52;;;16.70;;
2458;SDS011;1241;50.920;6.936;2022-11-14T09:22:17;30.00;;;18.60;;
2458;SDS011;1241;50.920;6.936;2022-11-14T09:25:01;26.00;;;17.70;;
2458;SDS011;1241;50.920;6.936;2022-11-14T09:27:46;25.88;;;17.77;;
2458;SDS011;1241;50.920;6.936;2022-11-14T09:30:31;21.40;;;15.95;;
2458;SDS011;1241;50.920;6.936;2022-11-14T09:33:16;25.60;;;17.60;;
2458;SDS011;1241;50.920;6.936;2022-11-14T09:36:01;28.15;;;19.23;;
2458;SDS011;1241;50.920;6.936;2022-11-14T09:38:50;23.35;;;17.30;;
2458;SDS011;1241;50.920;6.936;2022-11-14T09:47:45;28.05;;;19.20;;
2458;SDS011;1241;50.920;6.936;2022-11-14T09:50:33;28.33;;;18.65;;
2458;SDS011;1241;50.920;6.936;2022-11-14T09:53:33;27.27;;;17.70;;
2458;SDS011;1241;50.920;6.936;2022-11-14T09:56:29;28.05;;;19.48;;
2458;SDS011;1241;50.920;6.936;2022-11-14T09:59:13;26.52;;;19.35;;
2458;SDS011;1241;50.920;6.936;2022-11-14T10:02:32;25.80;;;18.23;;
2458;SDS011;1241;50.920;6.936;2022-11-14T10:05:23;28.17;;;18.85;;
2458;SDS011;1241;50.920;6.936;2022-11-14T10:11:27;28.70;;;18.75;;
2458;SDS011;1241;50.920;6.936;2022-11-14T10:27:02;27.75;;;18.70;;
2458;SDS011;1241;50.920;6.936;2022-11-14T10:33:10;24.23;;;18.65;;
2458;SDS011;1241;50.920;6.936;2022-11-14T10:36:07;24.58;;;17.00;;
2458;SDS011;1241;50.920;6.936;2022-11-14T10:39:31;25.00;;;17.02;;
2458;SDS011;1241;50.920;6.936;2022-11-14T10:42:30;25.85;;;18.40;;
2458;SDS011;1241;50.920;6.936;2022-11-14T10:45:30;30.88;;;19.75;;
2458;SDS011;1241;50.920;6.936;2022-11-14T10:48:23;30.55;;;19.92;;
2458;SDS011;1241;50.920;6.936;2022-11-14T10:54:16;26.38;;;17.08;;
2458;SDS011;1241;50.920;6.936;2022-11-14T10:57:16;26.00;;;18.92;;
2458;SDS011;1241;50.920;6.936;2022-11-14T11:00:05;23.60;;;17.33;;
2458;SDS011;1241;50.920;6.936;2022-11-14T11:03:00;29.35;;;19.25;;
2458;SDS011;1241;50.920;6.936;2022-11-14T11:05:50;29.17;;;20.60;;
2458;SDS011;1241;50.920;6.936;2022-11-14T11:08:40;22.45;;;18.15;;
2458;SDS011;1241;50.920;6.936;2022-11-14T11:11:51;28.20;;;20.55;;
2458;SDS011;1241;50.920;6.936;2022-11-14T11:14:37;25.52;;;20.08;;
2458;SDS011;1241;50.920;6.936;2022-11-14T11:17:21;32.05;;;19.17;;
2458;SDS011;1241;50.920;6.936;2022-11-14T11:26:22;24.90;;;19.70;;
2458;SDS011;1241;50.920;6.936;2022-11-14T11:31:56;23.88;;;18.73;;
2458;SDS011;1241;50.920;6.936;2022-11-14T11:34:41;23.58;;;18.20;;
2458;SDS011;1241;50.920;6.936;2022-11-14T11:37:27;30.70;;;20.23;;
2458;SDS011;1241;50.920;6.936;2022-11-14T11:40:16;26.80;;;19.50;;
2458;SDS011;1241;50.920;6.936;2022-11-14T11:43:26;26.13;;;18.88;;
2458;SDS011;1241;50.920;6.936;2022-11-14T11:55:42;24.05;;;18.38;;
2458;SDS011;1241;50.920;6.936;2022-11-14T11:58:30;23.23;;;19.23;;
2458;SDS011;1241;50.920;6.936;2022-11-14T12:01:20;28.30;;;19.75;;
2458;SDS011;1241;50.920;6.936;2022-11-14T12:04:04;29.08;;;18.98;;
2458;SDS011;1241;50.920;6.936;2022-11-14T12:06:54;25.80;;;20.02;;
2458;SDS011;1241;50.920;6.936;2022-11-14T12:09:44;26.65;;;17.73;;
2458;SDS011;1241;50.920;6.936;2022-11-14T12:21:54;27.52;;;20.13;;
2458;SDS011;1241;50.920;6.936;2022-11-14T12:31:02;27.50;;;19.48;;
2458;SDS011;1241;50.920;6.936;2022-11-14T12:33:59;26.17;;;19.02;;
2458;SDS011;1241;50.920;6.936;2022-11-14T12:36:47;27.08;;;19.02;;
2458;SDS011;1241;50.920;6.936;2022-11-14T12:39:32;31.50;;;19.88;;
2458;SDS011;1241;50.920;6.936;2022-11-14T12:42:18;32.08;;;20.67;;
2458;SDS011;1241;50.920;6.936;2022-11-14T12:45:03;24.40;;;17.80;;
2458;SDS011;1241;50.920;6.936;2022-11-14T12:54:15;31.83;;;19.50;;
2458;SDS011;1241;50.920;6.936;2022-11-14T12:57:42;23.33;;;17.10;;
2458;SDS011;1241;50.920;6.936;2022-11-14T13:00:33;23.98;;;17.25;;
2458;SDS011;1241;50.920;6.936;2022-11-14T13:13:13;26.42;;;20.10;;
2458;SDS011;1241;50.920;6.936;2022-11-14T13:16:22;26.23;;;18.85;;
2458;SDS011;1241;50.920;6.936;2022-11-14T13:19:27;29.88;;;19.58;;
2458;SDS011;1241;50.920;6.936;2022-11-14T13:22:38;27.60;;;19.67;;
2458;SDS011;1241;50.920;6.936;2022-11-14T13:25:23;25.67;;;19.20;;
2458;SDS011;1241;50.920;6.936;2022-11-14T13:37:23;24.88;;;18.40;;
2458;SDS011;1241;50.920;6.936;2022-11-14T13:40:36;27.15;;;20.95;;
2458;SDS011;1241;50.920;6.936;2022-11-14T13:43:51;25.95;;;18.98;;
2458;SDS011;1241;50.920;6.936;2022-11-14T13:50:07;26.33;;;20.25;;
2458;SDS011;1241;50.920;6.936;2022-11-14T13:52:57;24.73;;;18.50;;
2458;SDS011;1241;50.920;6.936;2022-11-14T13:55:58;29.92;;;21.08;;
2458;SDS011;1241;50.920;6.936;2022-11-14T13:58:56;25.75;;;19.33;;
2458;SDS011;1241;50.920;6.936;2022-11-14T14:17:52;29.73;;;20.52;;
2458;SDS011;1241;50.920;6.936;2022-11-14T14:20:42;26.10;;;21.00;;
2458;SDS011;1241;50.920;6.936;2022-11-14T14:24:05;27.15;;;20.65;;
2458;SDS011;1241;50.920;6.936;2022-11-14T14:26:47;32.55;;;20.77;;
2458;SDS011;1241;50.920;6.936;2022-11-14T14:32:43;28.00;;;21.67;;
2458;SDS011;1241;50.920;6.936;2022-11-14T14:35:51;30.42;;;21.55;;
2458;SDS011;1241;50.920;6.936;2022-11-14T14:38:36;30.20;;;21.08;;
2458;SDS011;1241;50.920;6.936;2022-11-14T14:41:20;25.40;;;20.52;;
2458;SDS011;1241;50.920;6.936;2022-11-14T14:44:10;30.85;;;22.35;;
2458;SDS011;1241;50.920;6.936;2022-11-14T14:50:19;24.42;;;21.08;;
2458;SDS011;1241;50.920;6.936;2022-11-14T14:53:31;31.48;;;21.63;;
2458;SDS011;1241;50.920;6.936;2022-11-14T14:56:21;26.42;;;20.77;;
2458;SDS011;1241;50.920;6.936;2022-11-14T14:59:16;32.42;;;21.25;;
2458;SDS011;1241;50.920;6.936;2022-11-14T15:02:02;26.73;;;21.45;;
2458;SDS011;1241;50.920;6.936;2022-11-14T15:04:46;31.30;;;21.65;;
2458;SDS011;1241;50.920;6.936;2022-11-14T15:07:31;35.90;;;21.00;;
2458;SDS011;1241;50.920;6.936;2022-11-14T15:10:23;28.77;;;21.58;;
2458;SDS011;1241;50.920;6.936;2022-11-14T15:13:13;24.17;;;19.45;;
2458;SDS011;1241;50.920;6.936;2022-11-14T15:16:00;29.50;;;19.98;;
2458;SDS011;1241;50.920;6.936;2022-11-14T15:18:46;28.75;;;21.58;;
2458;SDS011;1241;50.920;6.936;2022-11-14T15:21:33;27.77;;;20.77;;
2458;SDS011;1241;50.920;6.936;2022-11-14T15:24:18;23.38;;;19.70;;
2458;SDS011;1241;50.920;6.936;2022-11-14T15:27:05;26.73;;;19.75;;
2458;SDS011;1241;50.920;6.936;2022-11-14T15:30:02;23.95;;;19.17;;
2458;SDS011;1241;50.920;6.936;2022-11-14T15:32:52;26.02;;;20.17;;
2458;SDS011;1241;50.920;6.936;2022-11-14T15:35:42;23.38;;;19.40;;
2458;SDS011;1241;50.920;6.936;2022-11-14T15:38:26;27.52;;;19.70;;
2458;SDS011;1241;50.920;6.936;2022-11-14T15:44:04;23.80;;;19.17;;
2458;SDS011;1241;50.920;6.936;2022-11-14T15:46:49;24.27;;;20.23;;
2458;SDS011;1241;50.920;6.936;2022-11-14T15:49:33;21.70;;;19.38;;
2458;SDS011;1241;50.920;6.936;2022-11-14T15:52:20;27.55;;;19.63;;
2458;SDS011;1241;50.920;6.936;2022-11-14T15:55:11;24.23;;;19.70;;
2458;SDS011;1241;50.920;6.936;2022-11-14T15:57:59;25.88;;;20.45;;
2458;SDS011;1241;50.920;6.936;2022-11-14T16:00:46;30.30;;;24.38;;
2458;SDS011;1241;50.920;6.936;2022-11-14T16:03:33;22.20;;;19.77;;
2458;SDS011;1241;50.920;6.936;2022-11-14T16:06:17;28.33;;;21.67;;
2458;SDS011;1241;50.920;6.936;2022-11-14T16:09:01;26.13;;;20.50;;
2458;SDS011;1241;50.920;6.936;2022-11-14T16:11:45;27.48;;;20.30;;
2458;SDS011;1241;50.920;6.936;2022-11-14T16:14:30;24.63;;;19.13;;
2458;SDS011;1241;50.920;6.936;2022-11-14T16:17:15;21.25;;;18.33;;
2458;SDS011;1241;50.920;6.936;2022-11-14T16:20:01;26.52;;;20.67;;
2458;SDS011;1241;50.920;6.936;2022-11-14T16:22:48;26.88;;;20.15;;
2458;SDS011;1241;50.920;6.936;2022-11-14T16:25:35;22.25;;;19.15;;
2458;SDS011;1241;50.920;6.936;2022-11-14T16:28:19;27.75;;;19.42;;
2458;SDS011;1241;50.920;6.936;2022-11-14T16:31:09;22.83;;;18.05;;
2458;SDS011;1241;50.920;6.936;2022-11-14T16:33:54;25.13;;;18.70;;
2458;SDS011;1241;50.920;6.936;2022-11-14T16:36:40;26.00;;;19.67;;
2458;SDS011;1241;50.920;6.936;2022-11-14T16:39:27;20.98;;;18.35;;
2458;SDS011;1241;50.920;6.936;2022-11-14T16:42:12;21.70;;;18.00;;
2458;SDS011;1241;50.920;6.936;2022-11-14T16:44:59;22.95;;;18.63;;
2458;SDS011;1241;50.920;6.936;2022-11-14T16:47:44;23.73;;;18.90;;
2458;SDS011;1241;50.920;6.936;2022-11-14T16:50:29;20.58;;;17.27;;
2458;SDS011;1241;50.920;6.936;2022-11-14T16:53:14;23.38;;;17.60;;
2458;SDS011;1241;50.920;6.936;2022-11-14T16:55:58;23.80;;;17.40;;
2458;SDS011;1241;50.920;6.936;2022-11-14T16:58:42;22.13;;;18.52;;
2458;SDS011;1241;50.920;6.936;2022-11-14T17:01:26;21.25;;;18.33;;
2458;SDS011;1241;50.920;6.936;2022-11-14T17:04:10;24.65;;;21.85;;
2458;SDS011;1241;50.920;6.936;2022-11-14T17:06:55;21.60;;;17.65;;
2458;SDS011;1241;50.920;6.936;2022-11-14T17:09:39;24.67;;;19.20;;
2458;SDS011;1241;50.920;6.936;2022-11-14T17:12:23;20.27;;;16.05;;
2458;SDS011;1241;50.920;6.936;2022-11-14T17:15:07;18.58;;;15.63;;
2458;SDS011;1241;50.920;6.936;2022-11-14T17:17:51;18.77;;;14.82;;
2458;SDS011;1241;50.920;6.936;2022-11-14T17:20:36;16.50;;;14.73;;
2458;SDS011;1241;50.920;6.936;2022-11-14T17:23:21;15.00;;;13.40;;
2458;SDS011;1241;50.920;6.936;2022-11-14T17:26:06;14.23;;;12.60;;
2458;SDS011;1241;50.920;6.936;2022-11-14T17:28:52;16.52;;;13.63;;
2458;SDS011;1241;50.920;6.936;2022-11-14T17:31:36;15.95;;;13.18;;
2458;SDS011;1241;50.920;6.936;2022-11-14T17:34:21;14.95;;;13.43;;
2458;SDS011;1241;50.920;6.936;2022-11-14T17:37:05;16.67;;;13.70;;
2458;SDS011;1241;50.920;6.936;2022-11-14T17:39:49;17.10;;;13.48;;
2458;SDS011;1241;50.920;6.936;2022-11-14T17:42:33;17.05;;;14.05;;
2458;SDS011;1241;50.920;6.936;2022-11-14T17:45:18;17.45;;;14.10;;
2458;SDS011;1241;50.920;6.936;2022-11-14T17:48:03;18.15;;;14.45;;
2458;SDS011;1241;50.920;6.936;2022-11-14T17:50:47;19.55;;;12.63;;
2458;SDS011;1241;50.920;6.936;2022-11-14T17:53:31;16.98;;;13.88;;
2458;SDS011;1241;50.920;6.936;2022-11-14T17:56:25;17.15;;;14.75;;
2458;SDS011;1241;50.920;6.936;2022-11-14T17:59:09;17.42;;;14.25;;
2458;SDS011;1241;50.920;6.936;2022-11-14T18:01:54;19.48;;;13.90;;
2458;SDS011;1241;50.920;6.936;2022-11-14T18:04:42;15.23;;;13.27;;
2458;SDS011;1241;50.920;6.936;2022-11-14T18:07:28;16.80;;;13.05;;
2458;SDS011;1241;50.920;6.936;2022-11-14T18:10:12;19.42;;;13.57;;
2458;SDS011;1241;50.920;6.936;2022-11-14T18:12:56;16.35;;;11.90;;
2458;SDS011;1241;50.920;6.936;2022-11-14T18:15:42;17.30;;;13.48;;
2458;SDS011;1241;50.920;6.936;2022-11-14T18:18:29;15.43;;;12.32;;
2458;SDS011;1241;50.920;6.936;2022-11-14T18:21:15;16.15;;;12.23;;
2458;SDS011;1241;50.920;6.936;2022-11-14T18:24:00;18.08;;;14.30;;
2458;SDS011;1241;50.920;6.936;2022-11-14T18:26:44;17.33;;;14.48;;
2458;SDS011;1241;50.920;6.936;2022-11-14T18:29:28;14.80;;;12.70;;
2458;SDS011;1241;50.920;6.936;2022-11-14T18:32:13;17.10;;;12.30;;
2458;SDS011;1241;50.920;6.936;2022-11-14T18:34:58;16.42;;;13.43;;
2458;SDS011;1241;50.920;6.936;2022-11-14T18:37:42;15.52;;;12.48;;
2458;SDS011;1241;50.920;6.936;2022-11-14T18:40:26;22.90;;;13.82;;
2458;SDS011;1241;50.920;6.936;2022-11-14T18:43:10;19.38;;;14.23;;
2458;SDS011;1241;50.920;6.936;2022-11-14T18:45:54;13.85;;;11.18;;
2458;SDS011;1241;50.920;6.936;2022-11-14T18:48:38;18.85;;;11.82;;
2458;SDS011;1241;50.920;6.936;2022-11-14T18:51:24;18.80;;;12.75;;
2458;SDS011;1241;50.920;6.936;2022-11-14T18:54:11;15.10;;;11.75;;